sensor_id;sensor_type;location;lat;lon;timestamp;pressure;altitude;pressure_sealevel;temperature;humidity
74613;BME280;63119;51.788;8.824;2023-08-17T00:00:07;100259.25;;;19.72;84.42
74613;BME280;63119;51.788;8.824;2023-08-17T00:02:39;100260.84;;;19.64;85.13
74613;BME280;63119;51.788;8.824;2023-08-17T00:05:04;100244.81;;;19.55;84.36
74613;BME280;63119;51.788;8.824;2023-08-17T00:07:32;100246.06;;;19.60;84.06
74613;BME280;63119;51.788;8.824;2023-08-17T00:09:57;100247.81;;;19.70;84.33
74613;BME280;63119;51.788;8.824;2023-08-17T00:12:22;100239.38;;;19.64;84.66
74613;BME280;63119;51.788;8.824;2023-08-17T00:14:48;100255.88;;;19.52;84.68
74613;BME280;63119;51.788;8.824;2023-08-17T00:17:13;100258.66;;;19.42;85.60
74613;BME280;63119;51.788;8.824;2023-08-17T00:19:38;100251.34;;;19.52;85.32
74613;BME280;63119;51.788;8.824;2023-08-17T00:22:03;100253.66;;;19.47;85.23
74613;BME280;63119;51.788;8.824;2023-08-17T00:24:29;100262.19;;;19.33;86.05
74613;BME280;63119;51.788;8.824;2023-08-17T00:26:54;100260.22;;;19.35;87.00
74613;BME280;63119;51.788;8.824;2023-08-17T00:29:19;100265.00;;;19.24;87.54
74613;BME280;63119;51.788;8.824;2023-08-17T00:31:44;100259.69;;;19.32;87.96
74613;BME280;63119;51.788;8.824;2023-08-17T00:34:10;100267.66;;;19.24;88.32
74613;BME280;63119;51.788;8.824;2023-08-17T00:36:35;100262.81;;;19.27;88.03
74613;BME280;63119;51.788;8.824;2023-08-17T00:39:01;100267.38;;;19.27;88.21
74613;BME280;63119;51.788;8.824;2023-08-17T00:41:26;100264.88;;;19.16;88.57
74613;BME280;63119;51.788;8.824;2023-08-17T00:43:53;100268.41;;;19.16;88.33
74613;BME280;63119;51.788;8.824;2023-08-17T00:46:18;100263.91;;;19.17;88.43
74613;BME280;63119;51.788;8.824;2023-08-17T00:48:45;100266.03;;;19.13;88.23
74613;BME280;63119;51.788;8.824;2023-08-17T00:51:10;100264.28;;;19.22;87.83
74613;BME280;63119;51.788;8.824;2023-08-17T00:53:36;100267.06;;;19.30;87.56
74613;BME280;63119;51.788;8.824;2023-08-17T00:56:02;100269.25;;;19.34;87.04
74613;BME280;63119;51.788;8.824;2023-08-17T00:58:27;100274.47;;;19.18;86.60
74613;BME280;63119;51.788;8.824;2023-08-17T01:00:53;100266.97;;;19.22;86.64
74613;BME280;63119;51.788;8.824;2023-08-17T01:03:20;100274.56;;;19.26;86.71
74613;BME280;63119;51.788;8.824;2023-08-17T01:05:47;100268.78;;;19.21;86.21
74613;BME280;63119;51.788;8.824;2023-08-17T01:08:12;100274.09;;;19.13;86.47
74613;BME280;63119;51.788;8.824;2023-08-17T01:10:51;100271.78;;;19.18;86.54
74613;BME280;63119;51.788;8.824;2023-08-17T01:13:57;100283.28;;;19.10;86.42
74613;BME280;63119;51.788;8.824;2023-08-17T01:16:33;100291.94;;;19.22;86.68
74613;BME280;63119;51.788;8.824;2023-08-17T01:19:00;100291.03;;;19.31;86.50
74613;BME280;63119;51.788;8.824;2023-08-17T01:21:30;100294.19;;;19.27;86.59
74613;BME280;63119;51.788;8.824;2023-08-17T01:24:03;100289.66;;;19.27;86.92
74613;BME280;63119;51.788;8.824;2023-08-17T01:26:28;100299.41;;;19.28;87.93
74613;BME280;63119;51.788;8.824;2023-08-17T01:28:54;100299.09;;;19.31;87.68
74613;BME280;63119;51.788;8.824;2023-08-17T01:31:24;100295.72;;;19.29;87.02
74613;BME280;63119;51.788;8.824;2023-08-17T01:34:03;100296.22;;;19.15;85.98
74613;BME280;63119;51.788;8.824;2023-08-17T01:36:37;100295.19;;;19.26;87.10
74613;BME280;63119;51.788;8.824;2023-08-17T01:39:02;100296.16;;;19.25;87.42
74613;BME280;63119;51.788;8.824;2023-08-17T01:41:29;100298.78;;;19.17;86.99
74613;BME280;63119;51.788;8.824;2023-08-17T01:43:55;100296.09;;;19.17;86.48
74613;BME280;63119;51.788;8.824;2023-08-17T01:46:21;100287.25;;;19.24;87.03
74613;BME280;63119;51.788;8.824;2023-08-17T01:48:47;100287.50;;;19.13;87.42
74613;BME280;63119;51.788;8.824;2023-08-17T01:51:18;100290.69;;;18.99;88.42
74613;BME280;63119;51.788;8.824;2023-08-17T01:53:45;100287.78;;;18.92;88.22
74613;BME280;63119;51.788;8.824;2023-08-17T01:56:10;100293.75;;;19.04;88.14
74613;BME280;63119;51.788;8.824;2023-08-17T01:58:35;100292.28;;;18.92;87.81
74613;BME280;63119;51.788;8.824;2023-08-17T02:01:00;100287.00;;;19.00;87.56
74613;BME280;63119;51.788;8.824;2023-08-17T02:03:26;100284.25;;;18.92;88.44
74613;BME280;63119;51.788;8.824;2023-08-17T02:05:55;100280.53;;;19.02;87.54
74613;BME280;63119;51.788;8.824;2023-08-17T02:08:20;100285.34;;;18.99;88.01
74613;BME280;63119;51.788;8.824;2023-08-17T02:10:46;100284.03;;;19.03;87.94
74613;BME280;63119;51.788;8.824;2023-08-17T02:13:11;100292.53;;;18.98;88.44
74613;BME280;63119;51.788;8.824;2023-08-17T02:15:40;100291.44;;;18.91;88.51
74613;BME280;63119;51.788;8.824;2023-08-17T02:18:06;100294.75;;;19.03;89.24
74613;BME280;63119;51.788;8.824;2023-08-17T02:20:31;100304.50;;;19.04;90.67
74613;BME280;63119;51.788;8.824;2023-08-17T02:22:56;100304.75;;;19.10;89.88
74613;BME280;63119;51.788;8.824;2023-08-17T02:25:22;100309.81;;;19.14;89.41
74613;BME280;63119;51.788;8.824;2023-08-17T02:27:47;100305.03;;;19.07;89.39
74613;BME280;63119;51.788;8.824;2023-08-17T02:30:13;100310.34;;;19.17;89.36
74613;BME280;63119;51.788;8.824;2023-08-17T02:32:38;100309.34;;;19.18;89.56
74613;BME280;63119;51.788;8.824;2023-08-17T02:35:04;100307.72;;;19.07;89.77
74613;BME280;63119;51.788;8.824;2023-08-17T02:37:29;100315.78;;;19.07;90.49
74613;BME280;63119;51.788;8.824;2023-08-17T02:39:54;100312.09;;;19.08;90.83
74613;BME280;63119;51.788;8.824;2023-08-17T02:42:20;100313.22;;;19.06;91.38
74613;BME280;63119;51.788;8.824;2023-08-17T02:44:45;100313.31;;;18.96;92.26
74613;BME280;63119;51.788;8.824;2023-08-17T02:47:10;100302.56;;;18.96;92.54
74613;BME280;63119;51.788;8.824;2023-08-17T02:49:35;100302.31;;;18.90;93.25
74613;BME280;63119;51.788;8.824;2023-08-17T02:52:01;100298.94;;;18.88;92.87
74613;BME280;63119;51.788;8.824;2023-08-17T02:54:26;100286.38;;;18.88;92.62
74613;BME280;63119;51.788;8.824;2023-08-17T02:56:51;100289.66;;;18.82;92.61
74613;BME280;63119;51.788;8.824;2023-08-17T02:59:17;100292.28;;;18.92;92.29
74613;BME280;63119;51.788;8.824;2023-08-17T03:01:45;100293.28;;;18.91;92.05
74613;BME280;63119;51.788;8.824;2023-08-17T03:04:10;100288.22;;;18.88;91.59
74613;BME280;63119;51.788;8.824;2023-08-17T03:06:35;100291.91;;;18.87;92.30
74613;BME280;63119;51.788;8.824;2023-08-17T03:09:01;100289.31;;;18.95;91.60
74613;BME280;63119;51.788;8.824;2023-08-17T03:11:26;100288.22;;;18.88;91.82
74613;BME280;63119;51.788;8.824;2023-08-17T03:13:51;100291.31;;;18.93;91.96
74613;BME280;63119;51.788;8.824;2023-08-17T03:16:17;100291.00;;;18.96;91.64
74613;BME280;63119;51.788;8.824;2023-08-17T03:18:43;100287.59;;;18.94;91.72
74613;BME280;63119;51.788;8.824;2023-08-17T03:21:09;100292.59;;;18.89;91.37
74613;BME280;63119;51.788;8.824;2023-08-17T03:23:34;100286.66;;;18.85;91.67
74613;BME280;63119;51.788;8.824;2023-08-17T03:25:59;100285.38;;;18.89;91.70
74613;BME280;63119;51.788;8.824;2023-08-17T03:28:24;100287.69;;;18.84;91.71
74613;BME280;63119;51.788;8.824;2023-08-17T03:30:55;100289.81;;;18.81;92.60
74613;BME280;63119;51.788;8.824;2023-08-17T03:33:20;100285.81;;;18.58;93.44
74613;BME280;63119;51.788;8.824;2023-08-17T03:35:45;100286.19;;;18.26;95.82
74613;BME280;63119;51.788;8.824;2023-08-17T03:38:10;100284.06;;;18.39;96.06
74613;BME280;63119;51.788;8.824;2023-08-17T03:40:36;100275.25;;;18.10;97.76
74613;BME280;63119;51.788;8.824;2023-08-17T03:43:01;100277.56;;;18.32;97.35
74613;BME280;63119;51.788;8.824;2023-08-17T03:45:26;100273.50;;;18.28;97.23
74613;BME280;63119;51.788;8.824;2023-08-17T03:47:52;100265.31;;;18.29;96.73
74613;BME280;63119;51.788;8.824;2023-08-17T03:50:17;100263.66;;;18.19;97.63
74613;BME280;63119;51.788;8.824;2023-08-17T03:52:42;100261.41;;;18.24;98.46
74613;BME280;63119;51.788;8.824;2023-08-17T03:55:07;100251.59;;;18.05;99.04
74613;BME280;63119;51.788;8.824;2023-08-17T03:57:33;100246.81;;;17.99;100.00
74613;BME280;63119;51.788;8.824;2023-08-17T03:59:58;100251.88;;;18.02;100.00
74613;BME280;63119;51.788;8.824;2023-08-17T04:02:23;100254.41;;;18.03;100.00
74613;BME280;63119;51.788;8.824;2023-08-17T04:04:49;100247.31;;;18.12;100.00
74613;BME280;63119;51.788;8.824;2023-08-17T04:07:21;100250.81;;;18.22;99.83
74613;BME280;63119;51.788;8.824;2023-08-17T04:09:46;100253.72;;;18.38;98.69
74613;BME280;63119;51.788;8.824;2023-08-17T04:12:11;100251.00;;;18.48;98.05
74613;BME280;63119;51.788;8.824;2023-08-17T04:14:37;100249.44;;;18.45;98.77
74613;BME280;63119;51.788;8.824;2023-08-17T04:17:02;100246.47;;;18.48;98.46
74613;BME280;63119;51.788;8.824;2023-08-17T04:19:27;100259.34;;;18.45;98.60
74613;BME280;63119;51.788;8.824;2023-08-17T04:21:53;100262.56;;;18.48;98.31
74613;BME280;63119;51.788;8.824;2023-08-17T04:24:18;100264.97;;;18.51;97.91
74613;BME280;63119;51.788;8.824;2023-08-17T04:26:43;100275.09;;;18.58;98.12
74613;BME280;63119;51.788;8.824;2023-08-17T04:29:08;100264.97;;;18.51;98.63
74613;BME280;63119;51.788;8.824;2023-08-17T04:31:34;100273.44;;;18.57;98.35
74613;BME280;63119;51.788;8.824;2023-08-17T04:33:59;100276.53;;;18.42;98.64
74613;BME280;63119;51.788;8.824;2023-08-17T04:36:24;100285.97;;;18.46;98.69
74613;BME280;63119;51.788;8.824;2023-08-17T04:38:49;100285.03;;;18.38;99.02
74613;BME280;63119;51.788;8.824;2023-08-17T04:41:15;100296.03;;;18.35;99.08
74613;BME280;63119;51.788;8.824;2023-08-17T04:43:42;100298.31;;;18.30;98.50
74613;BME280;63119;51.788;8.824;2023-08-17T04:46:08;100302.13;;;18.27;97.79
74613;BME280;63119;51.788;8.824;2023-08-17T04:48:33;100308.47;;;18.26;98.59
74613;BME280;63119;51.788;8.824;2023-08-17T04:50:58;100298.44;;;18.28;98.59
74613;BME280;63119;51.788;8.824;2023-08-17T04:53:24;100295.09;;;18.26;98.54
74613;BME280;63119;51.788;8.824;2023-08-17T04:55:55;100289.56;;;18.28;98.85
74613;BME280;63119;51.788;8.824;2023-08-17T04:58:21;100298.34;;;18.20;98.84
74613;BME280;63119;51.788;8.824;2023-08-17T05:00:47;100300.44;;;18.26;99.10
74613;BME280;63119;51.788;8.824;2023-08-17T05:03:13;100285.47;;;18.33;98.38
74613;BME280;63119;51.788;8.824;2023-08-17T05:05:38;100295.47;;;18.41;98.34
74613;BME280;63119;51.788;8.824;2023-08-17T05:08:04;100289.34;;;18.48;97.43
74613;BME280;63119;51.788;8.824;2023-08-17T05:10:29;100289.94;;;18.42;97.95
74613;BME280;63119;51.788;8.824;2023-08-17T05:12:55;100290.66;;;18.54;97.31
74613;BME280;63119;51.788;8.824;2023-08-17T05:15:20;100297.25;;;18.60;97.12
74613;BME280;63119;51.788;8.824;2023-08-17T05:17:46;100298.63;;;18.64;96.81
74613;BME280;63119;51.788;8.824;2023-08-17T05:20:11;100297.75;;;18.73;95.87
74613;BME280;63119;51.788;8.824;2023-08-17T05:22:38;100291.69;;;18.71;96.48
74613;BME280;63119;51.788;8.824;2023-08-17T05:25:04;100306.03;;;18.79;95.79
74613;BME280;63119;51.788;8.824;2023-08-17T05:27:29;100295.06;;;18.73;95.95
74613;BME280;63119;51.788;8.824;2023-08-17T05:29:55;100299.31;;;18.75;96.43
74613;BME280;63119;51.788;8.824;2023-08-17T05:32:20;100306.50;;;18.75;96.90
74613;BME280;63119;51.788;8.824;2023-08-17T05:34:47;100304.41;;;18.69;96.41
74613;BME280;63119;51.788;8.824;2023-08-17T05:37:12;100308.47;;;18.73;96.27
74613;BME280;63119;51.788;8.824;2023-08-17T05:39:38;100303.31;;;18.62;96.90
74613;BME280;63119;51.788;8.824;2023-08-17T05:42:04;100305.13;;;18.61;97.04
74613;BME280;63119;51.788;8.824;2023-08-17T05:44:30;100304.84;;;18.64;97.01
74613;BME280;63119;51.788;8.824;2023-08-17T05:46:55;100306.06;;;18.70;97.03
74613;BME280;63119;51.788;8.824;2023-08-17T05:49:20;100304.25;;;18.70;96.91
74613;BME280;63119;51.788;8.824;2023-08-17T05:51:45;100315.81;;;18.71;96.87
74613;BME280;63119;51.788;8.824;2023-08-17T05:54:14;100323.28;;;18.77;95.97
74613;BME280;63119;51.788;8.824;2023-08-17T05:56:40;100310.03;;;18.75;96.52
74613;BME280;63119;51.788;8.824;2023-08-17T05:59:12;100314.50;;;18.84;96.43
74613;BME280;63119;51.788;8.824;2023-08-17T06:01:37;100310.25;;;18.82;96.34
74613;BME280;63119;51.788;8.824;2023-08-17T06:04:03;100304.19;;;18.80;96.46
74613;BME280;63119;51.788;8.824;2023-08-17T06:06:29;100319.06;;;18.74;96.29
74613;BME280;63119;51.788;8.824;2023-08-17T06:08:54;100314.25;;;18.78;96.34
74613;BME280;63119;51.788;8.824;2023-08-17T06:11:19;100313.78;;;18.82;96.00
74613;BME280;63119;51.788;8.824;2023-08-17T06:13:45;100324.47;;;18.92;96.43
74613;BME280;63119;51.788;8.824;2023-08-17T06:16:10;100329.41;;;18.96;96.27
74613;BME280;63119;51.788;8.824;2023-08-17T06:18:36;100328.44;;;18.88;96.04
74613;BME280;63119;51.788;8.824;2023-08-17T06:21:02;100327.69;;;18.95;96.10
74613;BME280;63119;51.788;8.824;2023-08-17T06:23:28;100325.28;;;19.02;95.93
74613;BME280;63119;51.788;8.824;2023-08-17T06:25:57;100317.59;;;19.07;95.32
74613;BME280;63119;51.788;8.824;2023-08-17T06:28:24;100317.38;;;19.18;95.39
74613;BME280;63119;51.788;8.824;2023-08-17T06:30:54;100314.63;;;19.10;94.19
74613;BME280;63119;51.788;8.824;2023-08-17T06:33:21;100321.22;;;19.16;94.52
74613;BME280;63119;51.788;8.824;2023-08-17T06:35:46;100325.41;;;19.00;93.37
74613;BME280;63119;51.788;8.824;2023-08-17T06:38:11;100323.91;;;19.16;94.07
74613;BME280;63119;51.788;8.824;2023-08-17T06:40:37;100319.88;;;19.29;93.61
74613;BME280;63119;51.788;8.824;2023-08-17T06:43:02;100319.53;;;19.42;93.92
74613;BME280;63119;51.788;8.824;2023-08-17T06:45:28;100330.03;;;19.53;92.95
74613;BME280;63119;51.788;8.824;2023-08-17T06:47:53;100330.59;;;19.56;92.86
74613;BME280;63119;51.788;8.824;2023-08-17T06:50:18;100332.59;;;19.54;90.96
74613;BME280;63119;51.788;8.824;2023-08-17T06:52:44;100324.38;;;19.56;92.08
74613;BME280;63119;51.788;8.824;2023-08-17T06:55:09;100320.53;;;19.58;92.56
74613;BME280;63119;51.788;8.824;2023-08-17T06:57:35;100308.84;;;19.32;92.51
74613;BME280;63119;51.788;8.824;2023-08-17T07:00:01;100299.59;;;19.44;93.17
74613;BME280;63119;51.788;8.824;2023-08-17T07:02:26;100315.72;;;19.44;93.22
74613;BME280;63119;51.788;8.824;2023-08-17T07:04:51;100321.66;;;19.38;93.28
74613;BME280;63119;51.788;8.824;2023-08-17T07:07:17;100325.91;;;19.58;93.10
74613;BME280;63119;51.788;8.824;2023-08-17T07:09:42;100327.28;;;19.62;91.26
74613;BME280;63119;51.788;8.824;2023-08-17T07:12:07;100319.59;;;19.68;91.58
74613;BME280;63119;51.788;8.824;2023-08-17T07:14:32;100319.75;;;19.84;89.74
74613;BME280;63119;51.788;8.824;2023-08-17T07:16:59;100324.69;;;20.32;90.30
74613;BME280;63119;51.788;8.824;2023-08-17T07:19:24;100332.38;;;20.52;87.81
74613;BME280;63119;51.788;8.824;2023-08-17T07:21:49;100337.66;;;20.36;86.86
74613;BME280;63119;51.788;8.824;2023-08-17T07:24:15;100328.03;;;20.34;88.03
74613;BME280;63119;51.788;8.824;2023-08-17T07:26:41;100324.84;;;20.30;88.44
74613;BME280;63119;51.788;8.824;2023-08-17T07:29:06;100318.03;;;20.18;88.48
74613;BME280;63119;51.788;8.824;2023-08-17T07:31:31;100320.81;;;20.34;89.02
74613;BME280;63119;51.788;8.824;2023-08-17T07:33:58;100319.63;;;20.54;87.36
74613;BME280;63119;51.788;8.824;2023-08-17T07:36:24;100323.34;;;20.61;88.25
74613;BME280;63119;51.788;8.824;2023-08-17T07:38:49;100323.66;;;20.58;88.59
74613;BME280;63119;51.788;8.824;2023-08-17T07:41:14;100322.03;;;20.65;88.28
74613;BME280;63119;51.788;8.824;2023-08-17T07:43:39;100330.44;;;20.70;87.83
74613;BME280;63119;51.788;8.824;2023-08-17T07:46:05;100336.25;;;20.58;87.48
74613;BME280;63119;51.788;8.824;2023-08-17T07:48:30;100337.06;;;20.50;89.51
74613;BME280;63119;51.788;8.824;2023-08-17T07:50:59;100347.28;;;20.47;88.93
74613;BME280;63119;51.788;8.824;2023-08-17T07:53:24;100343.59;;;20.48;90.31
74613;BME280;63119;51.788;8.824;2023-08-17T07:55:50;100343.97;;;20.53;89.03
74613;BME280;63119;51.788;8.824;2023-08-17T07:58:15;100348.56;;;20.60;90.34
74613;BME280;63119;51.788;8.824;2023-08-17T08:00:40;100344.59;;;20.73;90.37
74613;BME280;63119;51.788;8.824;2023-08-17T08:03:06;100343.75;;;20.72;90.16
74613;BME280;63119;51.788;8.824;2023-08-17T08:05:31;100336.03;;;20.77;89.31
74613;BME280;63119;51.788;8.824;2023-08-17T08:07:56;100343.44;;;20.75;89.62
74613;BME280;63119;51.788;8.824;2023-08-17T08:10:22;100349.75;;;20.66;89.36
74613;BME280;63119;51.788;8.824;2023-08-17T08:12:47;100352.13;;;20.69;89.79
74613;BME280;63119;51.788;8.824;2023-08-17T08:15:12;100356.00;;;20.66;89.19
74613;BME280;63119;51.788;8.824;2023-08-17T08:17:37;100360.66;;;20.64;89.79
74613;BME280;63119;51.788;8.824;2023-08-17T08:20:03;100359.63;;;20.57;89.47
74613;BME280;63119;51.788;8.824;2023-08-17T08:22:29;100362.56;;;20.46;90.13
74613;BME280;63119;51.788;8.824;2023-08-17T08:24:54;100361.72;;;20.46;89.94
74613;BME280;63119;51.788;8.824;2023-08-17T08:27:19;100360.41;;;20.50;90.15
74613;BME280;63119;51.788;8.824;2023-08-17T08:29:45;100357.38;;;20.45;90.07
74613;BME280;63119;51.788;8.824;2023-08-17T08:32:10;100353.16;;;20.42;90.35
74613;BME280;63119;51.788;8.824;2023-08-17T08:34:35;100345.72;;;20.36;90.83
74613;BME280;63119;51.788;8.824;2023-08-17T08:37:01;100347.03;;;20.32;91.58
74613;BME280;63119;51.788;8.824;2023-08-17T08:39:26;100350.72;;;20.31;91.32
74613;BME280;63119;51.788;8.824;2023-08-17T08:41:54;100348.63;;;20.25;90.64
74613;BME280;63119;51.788;8.824;2023-08-17T08:44:20;100348.25;;;20.20;91.04
74613;BME280;63119;51.788;8.824;2023-08-17T08:46:46;100346.66;;;20.27;90.93
74613;BME280;63119;51.788;8.824;2023-08-17T08:49:11;100348.03;;;20.31;91.31
74613;BME280;63119;51.788;8.824;2023-08-17T08:51:44;100349.53;;;20.34;90.68
74613;BME280;63119;51.788;8.824;2023-08-17T08:54:13;100349.03;;;20.30;90.68
74613;BME280;63119;51.788;8.824;2023-08-17T08:56:42;100349.03;;;20.30;90.46
74613;BME280;63119;51.788;8.824;2023-08-17T08:59:08;100347.34;;;20.29;90.51
74613;BME280;63119;51.788;8.824;2023-08-17T09:01:34;100351.88;;;20.29;90.28
74613;BME280;63119;51.788;8.824;2023-08-17T09:04:00;100348.50;;;20.27;89.92
74613;BME280;63119;51.788;8.824;2023-08-17T09:06:32;100340.88;;;20.22;90.15
74613;BME280;63119;51.788;8.824;2023-08-17T09:08:58;100349.94;;;20.21;90.31
74613;BME280;63119;51.788;8.824;2023-08-17T09:11:24;100352.25;;;20.16;90.47
74613;BME280;63119;51.788;8.824;2023-08-17T09:13:50;100344.56;;;20.21;89.95
74613;BME280;63119;51.788;8.824;2023-08-17T09:16:15;100346.56;;;20.19;89.81
74613;BME280;63119;51.788;8.824;2023-08-17T09:18:40;100349.34;;;20.27;90.46
74613;BME280;63119;51.788;8.824;2023-08-17T09:21:06;100350.72;;;20.31;90.47
74613;BME280;63119;51.788;8.824;2023-08-17T09:23:31;100346.50;;;20.29;90.14
74613;BME280;63119;51.788;8.824;2023-08-17T09:25:56;100348.34;;;20.28;89.70
74613;BME280;63119;51.788;8.824;2023-08-17T09:28:24;100348.25;;;20.20;90.03
74613;BME280;63119;51.788;8.824;2023-08-17T09:30:57;100354.16;;;20.24;90.65
74613;BME280;63119;51.788;8.824;2023-08-17T09:33:27;100347.66;;;20.26;90.52
74613;BME280;63119;51.788;8.824;2023-08-17T09:35:54;100347.34;;;20.29;90.69
74613;BME280;63119;51.788;8.824;2023-08-17T09:38:20;100349.19;;;20.29;91.50
74613;BME280;63119;51.788;8.824;2023-08-17T09:40:46;100338.97;;;20.32;91.18
74613;BME280;63119;51.788;8.824;2023-08-17T09:43:11;100345.03;;;20.34;91.08
74613;BME280;63119;51.788;8.824;2023-08-17T09:45:38;100344.16;;;20.34;91.47
74613;BME280;63119;51.788;8.824;2023-08-17T09:48:05;100343.03;;;20.36;90.73
74613;BME280;63119;51.788;8.824;2023-08-17T09:50:30;100343.09;;;20.44;90.43
74613;BME280;63119;51.788;8.824;2023-08-17T09:52:57;100337.69;;;20.44;90.24
74613;BME280;63119;51.788;8.824;2023-08-17T09:55:22;100341.38;;;20.43;91.15
74613;BME280;63119;51.788;8.824;2023-08-17T09:57:49;100341.78;;;20.48;90.46
74613;BME280;63119;51.788;8.824;2023-08-17T10:00:16;100338.59;;;20.53;90.36
74613;BME280;63119;51.788;8.824;2023-08-17T10:02:44;100346.28;;;20.48;89.99
74613;BME280;63119;51.788;8.824;2023-08-17T10:05:11;100344.81;;;20.53;90.12
74613;BME280;63119;51.788;8.824;2023-08-17T10:07:41;100352.56;;;20.56;90.00
74613;BME280;63119;51.788;8.824;2023-08-17T10:10:09;100333.09;;;20.62;90.06
74613;BME280;63119;51.788;8.824;2023-08-17T10:13:18;100336.63;;;20.63;90.31
74613;BME280;63119;51.788;8.824;2023-08-17T10:16:11;100342.16;;;20.61;90.24
74613;BME280;63119;51.788;8.824;2023-08-17T10:18:47;100337.00;;;20.68;89.50
74613;BME280;63119;51.788;8.824;2023-08-17T10:21:27;100340.84;;;20.65;90.15
74613;BME280;63119;51.788;8.824;2023-08-17T10:23:53;100331.94;;;20.65;89.91
74613;BME280;63119;51.788;8.824;2023-08-17T10:26:19;100330.56;;;20.61;89.61
74613;BME280;63119;51.788;8.824;2023-08-17T10:28:46;100330.94;;;20.66;90.40
74613;BME280;63119;51.788;8.824;2023-08-17T10:31:12;100338.16;;;20.65;90.17
74613;BME280;63119;51.788;8.824;2023-08-17T10:33:38;100331.09;;;20.64;90.29
74613;BME280;63119;51.788;8.824;2023-08-17T10:36:06;100334.50;;;20.75;90.28
74613;BME280;63119;51.788;8.824;2023-08-17T10:38:32;100325.91;;;20.71;89.83
74613;BME280;63119;51.788;8.824;2023-08-17T10:41:13;100335.50;;;20.73;89.78
74613;BME280;63119;51.788;8.824;2023-08-17T10:43:54;100344.63;;;20.81;90.22
74613;BME280;63119;51.788;8.824;2023-08-17T10:46:20;100344.66;;;20.89;89.80
74613;BME280;63119;51.788;8.824;2023-08-17T10:48:45;100341.50;;;21.01;90.72
74613;BME280;63119;51.788;8.824;2023-08-17T10:51:11;100341.75;;;21.16;92.55
74613;BME280;63119;51.788;8.824;2023-08-17T10:53:43;100343.66;;;21.23;90.73
74613;BME280;63119;51.788;8.824;2023-08-17T10:56:11;100344.19;;;21.27;91.65
74613;BME280;63119;51.788;8.824;2023-08-17T10:58:37;100339.78;;;21.18;89.36
74613;BME280;63119;51.788;8.824;2023-08-17T11:01:02;100348.50;;;21.12;89.69
74613;BME280;63119;51.788;8.824;2023-08-17T11:03:28;100355.28;;;20.98;90.99
74613;BME280;63119;51.788;8.824;2023-08-17T11:05:54;100355.78;;;20.94;91.08
74613;BME280;63119;51.788;8.824;2023-08-17T11:11:04;100359.66;;;20.91;91.12
74613;BME280;63119;51.788;8.824;2023-08-17T11:13:35;100363.81;;;20.86;91.99
74613;BME280;63119;51.788;8.824;2023-08-17T11:16:02;100367.88;;;20.90;91.63
74613;BME280;63119;51.788;8.824;2023-08-17T11:18:27;100367.22;;;20.96;91.62
74613;BME280;63119;51.788;8.824;2023-08-17T11:20:53;100371.31;;;21.08;90.93
74613;BME280;63119;51.788;8.824;2023-08-17T11:23:19;100372.03;;;21.10;92.87
74613;BME280;63119;51.788;8.824;2023-08-17T11:25:45;100363.13;;;21.09;93.71
74613;BME280;63119;51.788;8.824;2023-08-17T11:28:11;100369.50;;;21.08;93.64
74613;BME280;63119;51.788;8.824;2023-08-17T11:30:39;100369.63;;;21.07;92.66
74613;BME280;63119;51.788;8.824;2023-08-17T11:33:05;100375.00;;;21.07;92.67
74613;BME280;63119;51.788;8.824;2023-08-17T11:35:31;100377.34;;;21.02;93.29
74613;BME280;63119;51.788;8.824;2023-08-17T11:37:56;100376.28;;;20.95;91.91
74613;BME280;63119;51.788;8.824;2023-08-17T11:40:22;100371.97;;;21.02;92.29
74613;BME280;63119;51.788;8.824;2023-08-17T11:42:48;100374.34;;;21.05;91.92
74613;BME280;63119;51.788;8.824;2023-08-17T11:45:13;100371.50;;;21.06;90.54
74613;BME280;63119;51.788;8.824;2023-08-17T11:47:40;100363.41;;;21.06;90.23
74613;BME280;63119;51.788;8.824;2023-08-17T11:50:08;100371.19;;;21.09;90.24
74613;BME280;63119;51.788;8.824;2023-08-17T11:52:34;100365.84;;;21.17;88.99
74613;BME280;63119;51.788;8.824;2023-08-17T11:55:04;100362.16;;;21.27;89.06
74613;BME280;63119;51.788;8.824;2023-08-17T11:57:31;100354.97;;;21.35;89.17
74613;BME280;63119;51.788;8.824;2023-08-17T11:59:57;100359.03;;;21.47;89.29
74613;BME280;63119;51.788;8.824;2023-08-17T12:02:23;100352.50;;;21.58;88.25
74613;BME280;63119;51.788;8.824;2023-08-17T12:04:49;100353.34;;;21.66;86.75
74613;BME280;63119;51.788;8.824;2023-08-17T12:07:15;100352.00;;;21.62;86.56
74613;BME280;63119;51.788;8.824;2023-08-17T12:09:42;100352.00;;;21.62;86.22
74613;BME280;63119;51.788;8.824;2023-08-17T12:12:07;100352.84;;;21.55;88.16
74613;BME280;63119;51.788;8.824;2023-08-17T12:14:33;100358.69;;;21.58;88.63
74613;BME280;63119;51.788;8.824;2023-08-17T12:16:58;100356.19;;;21.57;88.80
74613;BME280;63119;51.788;8.824;2023-08-17T12:19:26;100354.50;;;21.48;89.41
74613;BME280;63119;51.788;8.824;2023-08-17T12:21:51;100356.66;;;21.44;89.77
74613;BME280;63119;51.788;8.824;2023-08-17T12:24:17;100355.63;;;21.37;90.88
74613;BME280;63119;51.788;8.824;2023-08-17T12:26:45;100362.50;;;21.32;90.47
74613;BME280;63119;51.788;8.824;2023-08-17T12:29:11;100360.84;;;21.31;90.92
74613;BME280;63119;51.788;8.824;2023-08-17T12:31:36;100355.81;;;21.36;90.37
74613;BME280;63119;51.788;8.824;2023-08-17T12:34:02;100354.94;;;21.27;90.78
74613;BME280;63119;51.788;8.824;2023-08-17T12:36:28;100355.47;;;21.31;90.91
74613;BME280;63119;51.788;8.824;2023-08-17T12:38:54;100356.47;;;21.30;91.49
74613;BME280;63119;51.788;8.824;2023-08-17T12:41:19;100352.13;;;21.37;91.57
74613;BME280;63119;51.788;8.824;2023-08-17T12:43:45;100348.25;;;21.39;91.80
74613;BME280;63119;51.788;8.824;2023-08-17T12:46:10;100349.09;;;21.40;91.25
74613;BME280;63119;51.788;8.824;2023-08-17T12:48:36;100342.53;;;21.42;90.87